sensor_id;sensor_type;location;lat;lon;timestamp;P1;durP1;ratioP1;P2;durP2;ratioP2
27796;SDS011;15177;50.844;4.412;2023-03-23T00:01:02;8.40;;;4.60;;
27796;SDS011;15177;50.844;4.412;2023-03-23T00:03:36;6.73;;;5.23;;
27796;SDS011;15177;50.844;4.412;2023-03-23T00:06:03;7.37;;;4.30;;
27796;SDS011;15177;50.844;4.412;2023-03-23T00:08:32;7.40;;;4.55;;
27796;SDS011;15177;50.844;4.412;2023-03-23T00:10:59;8.48;;;4.43;;
27796;SDS011;15177;50.844;4.412;2023-03-23T00:13:26;5.90;;;3.57;;
27796;SDS011;15177;50.844;4.412;2023-03-23T00:15:53;6.72;;;4.30;;
27796;SDS011;15177;50.844;4.412;2023-03-23T00:18:21;6.30;;;4.93;;
27796;SDS011;15177;50.844;4.412;2023-03-23T00:20:56;7.38;;;4.47;;
27796;SDS011;15177;50.844;4.412;2023-03-23T00:23:28;10.70;;;4.10;;
27796;SDS011;15177;50.844;4.412;2023-03-23T00:25:55;5.80;;;4.35;;
27796;SDS011;15177;50.844;4.412;2023-03-23T00:28:24;11.75;;;5.15;;
27796;SDS011;15177;50.844;4.412;2023-03-23T00:30:58;7.78;;;5.32;;
27796;SDS011;15177;50.844;4.412;2023-03-23T00:33:26;10.00;;;4.73;;
27796;SDS011;15177;50.844;4.412;2023-03-23T00:35:53;5.32;;;4.25;;
27796;SDS011;15177;50.844;4.412;2023-03-23T00:38:23;9.10;;;4.50;;
27796;SDS011;15177;50.844;4.412;2023-03-23T00:40:49;8.95;;;4.25;;
27796;SDS011;15177;50.844;4.412;2023-03-23T00:43:16;5.78;;;3.95;;
27796;SDS011;15177;50.844;4.412;2023-03-23T00:45:43;7.70;;;5.05;;
27796;SDS011;15177;50.844;4.412;2023-03-23T00:48:10;6.32;;;3.97;;
27796;SDS011;15177;50.844;4.412;2023-03-23T00:50:38;9.40;;;4.63;;
27796;SDS011;15177;50.844;4.412;2023-03-23T00:53:04;8.90;;;4.97;;
27796;SDS011;15177;50.844;4.412;2023-03-23T00:55:30;7.23;;;4.50;;
27796;SDS011;15177;50.844;4.412;2023-03-23T00:57:56;7.20;;;4.63;;
27796;SDS011;15177;50.844;4.412;2023-03-23T01:00:28;7.13;;;4.10;;
27796;SDS011;15177;50.844;4.412;2023-03-23T01:02:53;10.03;;;4.20;;
27796;SDS011;15177;50.844;4.412;2023-03-23T01:05:19;11.23;;;4.50;;
27796;SDS011;15177;50.844;4.412;2023-03-23T01:07:45;6.10;;;3.90;;
27796;SDS011;15177;50.844;4.412;2023-03-23T01:10:12;7.30;;;3.88;;
27796;SDS011;15177;50.844;4.412;2023-03-23T01:12:41;6.28;;;4.22;;
27796;SDS011;15177;50.844;4.412;2023-03-23T01:15:08;7.93;;;5.20;;
27796;SDS011;15177;50.844;4.412;2023-03-23T01:17:37;7.17;;;4.10;;
27796;SDS011;15177;50.844;4.412;2023-03-23T01:20:03;6.43;;;4.23;;
27796;SDS011;15177;50.844;4.412;2023-03-23T01:22:31;9.15;;;4.38;;
27796;SDS011;15177;50.844;4.412;2023-03-23T01:24:57;7.17;;;4.40;;
27796;SDS011;15177;50.844;4.412;2023-03-23T01:27:23;6.57;;;4.40;;
27796;SDS011;15177;50.844;4.412;2023-03-23T01:29:55;6.07;;;3.83;;
27796;SDS011;15177;50.844;4.412;2023-03-23T01:32:21;5.90;;;4.20;;
27796;SDS011;15177;50.844;4.412;2023-03-23T01:34:46;7.47;;;4.45;;
27796;SDS011;15177;50.844;4.412;2023-03-23T01:37:12;8.47;;;4.33;;
27796;SDS011;15177;50.844;4.412;2023-03-23T01:39:38;7.87;;;4.30;;
27796;SDS011;15177;50.844;4.412;2023-03-23T01:42:04;6.25;;;4.03;;
27796;SDS011;15177;50.844;4.412;2023-03-23T01:47:03;9.10;;;4.50;;
27796;SDS011;15177;50.844;4.412;2023-03-23T01:49:40;8.83;;;4.83;;
27796;SDS011;15177;50.844;4.412;2023-03-23T01:52:13;5.80;;;3.97;;
27796;SDS011;15177;50.844;4.412;2023-03-23T01:54:48;9.87;;;4.00;;
27796;SDS011;15177;50.844;4.412;2023-03-23T01:57:17;10.70;;;3.90;;
27796;SDS011;15177;50.844;4.412;2023-03-23T01:59:46;6.30;;;3.37;;
27796;SDS011;15177;50.844;4.412;2023-03-23T02:02:14;6.47;;;3.97;;
27796;SDS011;15177;50.844;4.412;2023-03-23T02:04:41;7.43;;;3.88;;
27796;SDS011;15177;50.844;4.412;2023-03-23T02:07:08;7.40;;;4.13;;
27796;SDS011;15177;50.844;4.412;2023-03-23T02:09:36;6.40;;;3.67;;
27796;SDS011;15177;50.844;4.412;2023-03-23T02:12:03;8.37;;;3.73;;
27796;SDS011;15177;50.844;4.412;2023-03-23T02:14:30;7.80;;;3.77;;
27796;SDS011;15177;50.844;4.412;2023-03-23T02:17:14;9.13;;;4.00;;
27796;SDS011;15177;50.844;4.412;2023-03-23T02:25:36;5.95;;;3.17;;
27796;SDS011;15177;50.844;4.412;2023-03-23T02:31:14;7.90;;;3.10;;
27796;SDS011;15177;50.844;4.412;2023-03-23T02:33:58;6.47;;;2.47;;
27796;SDS011;15177;50.844;4.412;2023-03-23T02:39:45;7.90;;;2.47;;
27796;SDS011;15177;50.844;4.412;2023-03-23T02:42:05;8.27;;;2.30;;
27796;SDS011;15177;50.844;4.412;2023-03-23T02:44:34;5.83;;;2.07;;
27796;SDS011;15177;50.844;4.412;2023-03-23T02:47:08;7.10;;;2.23;;
27796;SDS011;15177;50.844;4.412;2023-03-23T02:49:39;8.43;;;2.43;;
27796;SDS011;15177;50.844;4.412;2023-03-23T02:52:10;6.17;;;2.07;;
27796;SDS011;15177;50.844;4.412;2023-03-23T02:54:41;5.57;;;1.80;;
27796;SDS011;15177;50.844;4.412;2023-03-23T02:57:09;5.97;;;2.20;;
27796;SDS011;15177;50.844;4.412;2023-03-23T02:59:35;6.37;;;1.77;;
27796;SDS011;15177;50.844;4.412;2023-03-23T03:04:57;6.07;;;1.80;;
27796;SDS011;15177;50.844;4.412;2023-03-23T03:10:23;5.90;;;1.70;;
27796;SDS011;15177;50.844;4.412;2023-03-23T03:15:44;4.97;;;1.60;;
27796;SDS011;15177;50.844;4.412;2023-03-23T03:18:17;6.27;;;1.37;;
27796;SDS011;15177;50.844;4.412;2023-03-23T03:20:53;5.77;;;1.40;;
27796;SDS011;15177;50.844;4.412;2023-03-23T03:23:24;4.93;;;1.27;;
27796;SDS011;15177;50.844;4.412;2023-03-23T03:25:52;4.10;;;1.67;;
27796;SDS011;15177;50.844;4.412;2023-03-23T03:28:22;5.57;;;1.53;;
27796;SDS011;15177;50.844;4.412;2023-03-23T03:30:55;5.93;;;1.67;;
27796;SDS011;15177;50.844;4.412;2023-03-23T03:33:25;4.97;;;1.40;;
27796;SDS011;15177;50.844;4.412;2023-03-23T03:35:55;4.37;;;1.83;;
27796;SDS011;15177;50.844;4.412;2023-03-23T03:38:40;7.27;;;2.37;;
27796;SDS011;15177;50.844;4.412;2023-03-23T03:41:07;9.20;;;3.07;;
27796;SDS011;15177;50.844;4.412;2023-03-23T03:43:33;2.80;;;1.70;;
27796;SDS011;15177;50.844;4.412;2023-03-23T03:46:00;6.80;;;1.63;;
27796;SDS011;15177;50.844;4.412;2023-03-23T03:48:25;5.03;;;1.73;;
27796;SDS011;15177;50.844;4.412;2023-03-23T03:50:53;7.47;;;2.00;;
27796;SDS011;15177;50.844;4.412;2023-03-23T03:53:22;8.27;;;2.53;;
27796;SDS011;15177;50.844;4.412;2023-03-23T03:55:51;8.10;;;1.87;;
27796;SDS011;15177;50.844;4.412;2023-03-23T03:58:20;6.50;;;2.37;;
27796;SDS011;15177;50.844;4.412;2023-03-23T04:00:47;7.67;;;2.37;;
27796;SDS011;15177;50.844;4.412;2023-03-23T04:03:14;7.20;;;2.33;;
27796;SDS011;15177;50.844;4.412;2023-03-23T04:05:41;7.50;;;2.60;;
27796;SDS011;15177;50.844;4.412;2023-03-23T04:08:09;7.67;;;2.53;;
27796;SDS011;15177;50.844;4.412;2023-03-23T04:10:36;17.50;;;2.63;;
27796;SDS011;15177;50.844;4.412;2023-03-23T04:13:02;13.27;;;2.87;;
27796;SDS011;15177;50.844;4.412;2023-03-23T04:15:29;5.73;;;1.93;;
27796;SDS011;15177;50.844;4.412;2023-03-23T04:17:56;8.43;;;2.40;;
27796;SDS011;15177;50.844;4.412;2023-03-23T04:20:22;7.13;;;1.97;;
27796;SDS011;15177;50.844;4.412;2023-03-23T04:22:50;6.83;;;1.90;;
27796;SDS011;15177;50.844;4.412;2023-03-23T04:25:20;10.03;;;2.13;;
27796;SDS011;15177;50.844;4.412;2023-03-23T04:27:47;7.93;;;1.67;;
27796;SDS011;15177;50.844;4.412;2023-03-23T04:30:17;12.00;;;2.13;;
27796;SDS011;15177;50.844;4.412;2023-03-23T04:32:51;8.63;;;1.83;;
27796;SDS011;15177;50.844;4.412;2023-03-23T04:35:20;9.97;;;2.07;;
27796;SDS011;15177;50.844;4.412;2023-03-23T04:37:48;8.77;;;1.87;;
27796;SDS011;15177;50.844;4.412;2023-03-23T04:40:15;9.17;;;2.77;;
27796;SDS011;15177;50.844;4.412;2023-03-23T04:42:42;7.87;;;2.37;;
27796;SDS011;15177;50.844;4.412;2023-03-23T04:45:14;4.03;;;1.50;;
27796;SDS011;15177;50.844;4.412;2023-03-23T04:47:46;5.87;;;1.70;;
27796;SDS011;15177;50.844;4.412;2023-03-23T04:50:18;8.55;;;2.05;;
27796;SDS011;15177;50.844;4.412;2023-03-23T04:52:45;9.23;;;1.77;;
27796;SDS011;15177;50.844;4.412;2023-03-23T04:55:11;9.33;;;2.00;;
27796;SDS011;15177;50.844;4.412;2023-03-23T04:57:37;4.87;;;1.50;;
27796;SDS011;15177;50.844;4.412;2023-03-23T05:00:04;6.73;;;1.67;;
27796;SDS011;15177;50.844;4.412;2023-03-23T05:02:35;5.53;;;1.88;;
27796;SDS011;15177;50.844;4.412;2023-03-23T05:05:01;8.67;;;2.13;;
27796;SDS011;15177;50.844;4.412;2023-03-23T05:07:33;7.23;;;1.50;;
27796;SDS011;15177;50.844;4.412;2023-03-23T05:10:06;8.17;;;1.90;;
27796;SDS011;15177;50.844;4.412;2023-03-23T05:12:34;8.03;;;1.97;;
27796;SDS011;15177;50.844;4.412;2023-03-23T05:14:59;7.43;;;1.70;;
27796;SDS011;15177;50.844;4.412;2023-03-23T05:17:25;9.03;;;2.37;;
27796;SDS011;15177;50.844;4.412;2023-03-23T05:19:51;7.50;;;2.00;;
27796;SDS011;15177;50.844;4.412;2023-03-23T05:22:18;7.73;;;2.33;;
27796;SDS011;15177;50.844;4.412;2023-03-23T05:24:45;6.17;;;1.93;;
27796;SDS011;15177;50.844;4.412;2023-03-23T05:27:12;6.27;;;2.13;;
27796;SDS011;15177;50.844;4.412;2023-03-23T05:29:39;4.33;;;2.10;;
27796;SDS011;15177;50.844;4.412;2023-03-23T05:32:06;8.70;;;1.80;;
27796;SDS011;15177;50.844;4.412;2023-03-23T05:34:39;4.80;;;2.00;;
27796;SDS011;15177;50.844;4.412;2023-03-23T05:37:05;4.73;;;1.73;;
27796;SDS011;15177;50.844;4.412;2023-03-23T05:39:31;10.63;;;2.90;;
27796;SDS011;15177;50.844;4.412;2023-03-23T05:41:57;5.90;;;1.90;;
27796;SDS011;15177;50.844;4.412;2023-03-23T05:44:23;10.30;;;1.87;;
27796;SDS011;15177;50.844;4.412;2023-03-23T05:46:49;10.37;;;2.23;;
27796;SDS011;15177;50.844;4.412;2023-03-23T05:49:15;5.80;;;2.30;;
27796;SDS011;15177;50.844;4.412;2023-03-23T05:51:41;8.97;;;2.10;;
27796;SDS011;15177;50.844;4.412;2023-03-23T05:54:18;4.70;;;1.87;;
27796;SDS011;15177;50.844;4.412;2023-03-23T05:56:43;6.00;;;1.77;;
27796;SDS011;15177;50.844;4.412;2023-03-23T05:59:09;9.35;;;2.20;;
27796;SDS011;15177;50.844;4.412;2023-03-23T06:01:37;8.95;;;2.22;;
27796;SDS011;15177;50.844;4.412;2023-03-23T06:04:04;7.90;;;2.10;;
27796;SDS011;15177;50.844;4.412;2023-03-23T06:06:30;8.73;;;1.90;;
27796;SDS011;15177;50.844;4.412;2023-03-23T06:08:57;6.93;;;2.07;;
27796;SDS011;15177;50.844;4.412;2023-03-23T06:11:23;6.37;;;3.10;;
27796;SDS011;15177;50.844;4.412;2023-03-23T06:13:50;11.47;;;2.07;;
27796;SDS011;15177;50.844;4.412;2023-03-23T06:16:17;5.90;;;1.80;;
27796;SDS011;15177;50.844;4.412;2023-03-23T06:18:43;10.27;;;2.60;;
27796;SDS011;15177;50.844;4.412;2023-03-23T06:21:09;8.47;;;2.23;;
27796;SDS011;15177;50.844;4.412;2023-03-23T06:23:36;7.43;;;2.20;;
27796;SDS011;15177;50.844;4.412;2023-03-23T06:26:03;7.83;;;2.03;;
27796;SDS011;15177;50.844;4.412;2023-03-23T06:28:31;9.77;;;2.50;;
27796;SDS011;15177;50.844;4.412;2023-03-23T06:31:04;14.30;;;2.53;;
27796;SDS011;15177;50.844;4.412;2023-03-23T06:33:35;11.37;;;2.40;;
27796;SDS011;15177;50.844;4.412;2023-03-23T06:36:01;12.50;;;2.70;;
27796;SDS011;15177;50.844;4.412;2023-03-23T06:38:27;10.87;;;2.87;;
27796;SDS011;15177;50.844;4.412;2023-03-23T06:41:00;6.47;;;2.42;;
27796;SDS011;15177;50.844;4.412;2023-03-23T06:43:26;8.30;;;2.35;;
27796;SDS011;15177;50.844;4.412;2023-03-23T06:45:52;8.40;;;2.13;;
27796;SDS011;15177;50.844;4.412;2023-03-23T06:48:18;7.50;;;2.00;;
27796;SDS011;15177;50.844;4.412;2023-03-23T06:50:44;11.23;;;3.05;;
27796;SDS011;15177;50.844;4.412;2023-03-23T06:53:10;8.97;;;2.20;;
27796;SDS011;15177;50.844;4.412;2023-03-23T06:55:43;10.83;;;2.50;;
27796;SDS011;15177;50.844;4.412;2023-03-23T06:58:09;11.57;;;2.90;;
27796;SDS011;15177;50.844;4.412;2023-03-23T07:00:35;9.80;;;2.63;;
27796;SDS011;15177;50.844;4.412;2023-03-23T07:03:01;8.20;;;2.10;;
27796;SDS011;15177;50.844;4.412;2023-03-23T07:05:26;8.57;;;2.63;;
27796;SDS011;15177;50.844;4.412;2023-03-23T07:07:52;12.53;;;2.67;;
27796;SDS011;15177;50.844;4.412;2023-03-23T07:10:18;9.48;;;3.10;;
27796;SDS011;15177;50.844;4.412;2023-03-23T07:12:44;10.60;;;2.92;;
27796;SDS011;15177;50.844;4.412;2023-03-23T07:15:10;14.47;;;2.90;;
27796;SDS011;15177;50.844;4.412;2023-03-23T07:17:37;4.57;;;1.20;;
27796;SDS011;15177;50.844;4.412;2023-03-23T07:20:04;8.67;;;1.53;;
27796;SDS011;15177;50.844;4.412;2023-03-23T07:22:30;1.97;;;1.10;;
27796;SDS011;15177;50.844;4.412;2023-03-23T07:24:56;2.70;;;1.00;;
27796;SDS011;15177;50.844;4.412;2023-03-23T07:27:22;4.80;;;2.13;;
27796;SDS011;15177;50.844;4.412;2023-03-23T07:29:47;5.40;;;1.20;;
27796;SDS011;15177;50.844;4.412;2023-03-23T07:32:22;3.17;;;1.17;;
27796;SDS011;15177;50.844;4.412;2023-03-23T07:34:47;4.40;;;1.53;;
27796;SDS011;15177;50.844;4.412;2023-03-23T07:37:13;4.17;;;1.40;;
27796;SDS011;15177;50.844;4.412;2023-03-23T07:39:39;6.90;;;2.43;;
27796;SDS011;15177;50.844;4.412;2023-03-23T07:42:05;5.83;;;2.07;;
27796;SDS011;15177;50.844;4.412;2023-03-23T07:44:32;7.30;;;2.27;;
27796;SDS011;15177;50.844;4.412;2023-03-23T07:46:58;5.00;;;1.80;;
27796;SDS011;15177;50.844;4.412;2023-03-23T07:49:24;5.43;;;2.00;;
27796;SDS011;15177;50.844;4.412;2023-03-23T07:51:51;7.70;;;2.10;;
27796;SDS011;15177;50.844;4.412;2023-03-23T07:54:19;7.10;;;2.13;;
27796;SDS011;15177;50.844;4.412;2023-03-23T07:56:45;6.90;;;2.07;;
27796;SDS011;15177;50.844;4.412;2023-03-23T07:59:11;10.63;;;2.43;;
27796;SDS011;15177;50.844;4.412;2023-03-23T08:01:38;9.37;;;2.10;;
27796;SDS011;15177;50.844;4.412;2023-03-23T08:04:04;8.60;;;2.30;;
27796;SDS011;15177;50.844;4.412;2023-03-23T08:06:34;6.13;;;1.80;;
27796;SDS011;15177;50.844;4.412;2023-03-23T08:09:07;16.33;;;2.17;;
27796;SDS011;15177;50.844;4.412;2023-03-23T08:11:36;3.27;;;1.20;;
27796;SDS011;15177;50.844;4.412;2023-03-23T08:14:03;7.40;;;1.70;;
27796;SDS011;15177;50.844;4.412;2023-03-23T08:16:30;7.27;;;1.70;;
27796;SDS011;15177;50.844;4.412;2023-03-23T08:18:57;6.37;;;1.40;;
27796;SDS011;15177;50.844;4.412;2023-03-23T08:21:24;6.43;;;1.27;;
27796;SDS011;15177;50.844;4.412;2023-03-23T08:23:51;5.20;;;1.20;;
27796;SDS011;15177;50.844;4.412;2023-03-23T08:26:17;4.63;;;1.57;;
27796;SDS011;15177;50.844;4.412;2023-03-23T08:28:43;6.40;;;1.70;;
27796;SDS011;15177;50.844;4.412;2023-03-23T08:31:10;3.47;;;1.03;;
27796;SDS011;15177;50.844;4.412;2023-03-23T08:33:38;7.13;;;1.33;;
27796;SDS011;15177;50.844;4.412;2023-03-23T08:36:04;3.40;;;1.40;;
27796;SDS011;15177;50.844;4.412;2023-03-23T08:38:30;13.60;;;1.67;;
27796;SDS011;15177;50.844;4.412;2023-03-23T08:41:00;7.00;;;1.20;;
27796;SDS011;15177;50.844;4.412;2023-03-23T08:43:27;3.70;;;1.23;;
27796;SDS011;15177;50.844;4.412;2023-03-23T08:45:53;4.23;;;1.20;;
27796;SDS011;15177;50.844;4.412;2023-03-23T08:48:20;2.87;;;1.07;;
27796;SDS011;15177;50.844;4.412;2023-03-23T08:50:47;2.80;;;1.40;;
27796;SDS011;15177;50.844;4.412;2023-03-23T08:53:13;5.73;;;1.60;;
27796;SDS011;15177;50.844;4.412;2023-03-23T08:55:39;7.30;;;1.60;;
27796;SDS011;15177;50.844;4.412;2023-03-23T08:58:11;3.43;;;1.20;;
27796;SDS011;15177;50.844;4.412;2023-03-23T09:00:36;10.13;;;1.60;;
27796;SDS011;15177;50.844;4.412;2023-03-23T09:03:02;8.47;;;1.90;;
27796;SDS011;15177;50.844;4.412;2023-03-23T09:05:30;7.00;;;1.77;;
27796;SDS011;15177;50.844;4.412;2023-03-23T09:07:57;6.50;;;1.67;;
27796;SDS011;15177;50.844;4.412;2023-03-23T09:10:26;11.10;;;2.00;;
27796;SDS011;15177;50.844;4.412;2023-03-23T09:12:57;23.90;;;3.90;;
27796;SDS011;15177;50.844;4.412;2023-03-23T09:15:22;5.03;;;1.70;;
27796;SDS011;15177;50.844;4.412;2023-03-23T09:17:49;4.63;;;1.30;;
27796;SDS011;15177;50.844;4.412;2023-03-23T09:20:21;4.50;;;1.50;;
27796;SDS011;15177;50.844;4.412;2023-03-23T09:22:55;4.43;;;1.67;;
27796;SDS011;15177;50.844;4.412;2023-03-23T09:25:23;4.20;;;1.53;;
27796;SDS011;15177;50.844;4.412;2023-03-23T09:27:52;5.90;;;1.40;;
27796;SDS011;15177;50.844;4.412;2023-03-23T09:30:22;3.25;;;0.85;;
27796;SDS011;15177;50.844;4.412;2023-03-23T09:32:56;4.83;;;1.23;;
27796;SDS011;15177;50.844;4.412;2023-03-23T09:35:23;8.50;;;1.90;;
27796;SDS011;15177;50.844;4.412;2023-03-23T09:37:49;6.40;;;1.83;;
27796;SDS011;15177;50.844;4.412;2023-03-23T09:40:17;4.63;;;1.48;;
27796;SDS011;15177;50.844;4.412;2023-03-23T09:49:20;3.85;;;1.13;;
27796;SDS011;15177;50.844;4.412;2023-03-23T09:51:51;4.10;;;1.00;;
27796;SDS011;15177;50.844;4.412;2023-03-23T09:57:01;4.95;;;1.33;;
27796;SDS011;15177;50.844;4.412;2023-03-23T10:05:42;5.30;;;1.80;;
27796;SDS011;15177;50.844;4.412;2023-03-23T10:08:13;4.55;;;1.50;;
27796;SDS011;15177;50.844;4.412;2023-03-23T10:10:50;11.23;;;2.15;;
27796;SDS011;15177;50.844;4.412;2023-03-23T10:16:02;5.28;;;1.75;;
27796;SDS011;15177;50.844;4.412;2023-03-23T10:18:37;5.53;;;1.70;;
27796;SDS011;15177;50.844;4.412;2023-03-23T10:21:22;10.02;;;2.20;;
27796;SDS011;15177;50.844;4.412;2023-03-23T10:24:01;12.43;;;1.92;;
27796;SDS011;15177;50.844;4.412;2023-03-23T10:29:15;3.95;;;1.50;;
27796;SDS011;15177;50.844;4.412;2023-03-23T10:37:32;4.75;;;1.70;;
27796;SDS011;15177;50.844;4.412;2023-03-23T10:40:03;6.88;;;2.13;;
27796;SDS011;15177;50.844;4.412;2023-03-23T10:42:35;3.38;;;1.60;;
27796;SDS011;15177;50.844;4.412;2023-03-23T10:45:25;7.00;;;2.15;;
27796;SDS011;15177;50.844;4.412;2023-03-23T10:48:10;6.40;;;2.13;;
27796;SDS011;15177;50.844;4.412;2023-03-23T10:50:48;10.82;;;2.10;;
27796;SDS011;15177;50.844;4.412;2023-03-23T10:53:16;6.82;;;2.88;;
27796;SDS011;15177;50.844;4.412;2023-03-23T10:55:45;4.63;;;2.33;;
27796;SDS011;15177;50.844;4.412;2023-03-23T10:58:13;12.80;;;2.67;;
27796;SDS011;15177;50.844;4.412;2023-03-23T11:00:48;9.10;;;2.33;;
27796;SDS011;15177;50.844;4.412;2023-03-23T11:08:13;11.40;;;3.03;;
27796;SDS011;15177;50.844;4.412;2023-03-23T11:11:26;8.65;;;2.50;;
27796;SDS011;15177;50.844;4.412;2023-03-23T11:13:38;7.00;;;2.33;;
27796;SDS011;15177;50.844;4.412;2023-03-23T11:16:08;8.82;;;2.30;;
27796;SDS011;15177;50.844;4.412;2023-03-23T11:18:40;7.18;;;2.67;;
27796;SDS011;15177;50.844;4.412;2023-03-23T11:21:11;8.95;;;2.30;;
27796;SDS011;15177;50.844;4.412;2023-03-23T11:23:39;7.70;;;2.65;;
27796;SDS011;15177;50.844;4.412;2023-03-23T11:26:14;9.85;;;2.30;;
27796;SDS011;15177;50.844;4.412;2023-03-23T11:29:14;9.40;;;2.42;;
27796;SDS011;15177;50.844;4.412;2023-03-23T11:34:24;7.22;;;2.13;;
27796;SDS011;15177;50.844;4.412;2023-03-23T11:36:58;5.03;;;2.15;;
27796;SDS011;15177;50.844;4.412;2023-03-23T11:39:47;4.35;;;2.25;;
27796;SDS011;15177;50.844;4.412;2023-03-23T11:42:46;12.20;;;2.53;;
27796;SDS011;15177;50.844;4.412;2023-03-23T11:56:25;9.00;;;2.35;;
27796;SDS011;15177;50.844;4.412;2023-03-23T11:58:54;7.00;;;2.08;;
27796;SDS011;15177;50.844;4.412;2023-03-23T12:32:15;11.05;;;2.75;;
27796;SDS011;15177;50.844;4.412;2023-03-23T12:35:32;9.50;;;2.83;;
27796;SDS011;15177;50.844;4.412;2023-03-23T12:46:05;11.30;;;2.40;;
27796;SDS011;15177;50.844;4.412;2023-03-23T12:48:49;11.00;;;2.08;;
27796;SDS011;15177;50.844;4.412;2023-03-23T12:51:35;10.25;;;2.25;;
27796;SDS011;15177;50.844;4.412;2023-03-23T12:54:29;14.70;;;2.67;;
27796;SDS011;15177;50.844;4.412;2023-03-23T12:57:12;6.68;;;2.50;;
27796;SDS011;15177;50.844;4.412;2023-03-23T13:00:18;7.10;;;2.45;;
27796;SDS011;15177;50.844;4.412;2023-03-23T13:02:53;9.43;;;3.20;;
27796;SDS011;15177;50.844;4.412;2023-03-23T13:07:52;11.07;;;2.65;;
27796;SDS011;15177;50.844;4.412;2023-03-23T13:10:34;6.38;;;2.60;;
27796;SDS011;15177;50.844;4.412;2023-03-23T13:13:10;12.98;;;2.47;;
27796;SDS011;15177;50.844;4.412;2023-03-23T13:21:06;10.77;;;2.50;;
27796;SDS011;15177;50.844;4.412;2023-03-23T13:23:49;12.75;;;2.85;;
27796;SDS011;15177;50.844;4.412;2023-03-23T13:26:21;14.60;;;2.92;;
27796;SDS011;15177;50.844;4.412;2023-03-23T13:31:23;7.82;;;2.20;;
27796;SDS011;15177;50.844;4.412;2023-03-23T13:34:17;11.38;;;2.35;;
27796;SDS011;15177;50.844;4.412;2023-03-23T13:36:51;10.02;;;2.63;;
27796;SDS011;15177;50.844;4.412;2023-03-23T13:39:25;9.05;;;2.08;;
27796;SDS011;15177;50.844;4.412;2023-03-23T13:42:01;9.13;;;2.10;;
27796;SDS011;15177;50.844;4.412;2023-03-23T13:49:54;10.80;;;2.38;;
27796;SDS011;15177;50.844;4.412;2023-03-23T13:57:53;13.90;;;2.83;;
27796;SDS011;15177;50.844;4.412;2023-03-23T14:05:44;15.30;;;2.55;;
27796;SDS011;15177;50.844;4.412;2023-03-23T14:08:12;8.13;;;2.15;;
27796;SDS011;15177;50.844;4.412;2023-03-23T14:10:50;12.88;;;2.60;;
27796;SDS011;15177;50.844;4.412;2023-03-23T14:13:23;9.23;;;2.20;;
27796;SDS011;15177;50.844;4.412;2023-03-23T14:16:03;7.78;;;2.90;;
27796;SDS011;15177;50.844;4.412;2023-03-23T14:18:38;9.70;;;2.55;;
27796;SDS011;15177;50.844;4.412;2023-03-23T14:21:06;8.65;;;2.67;;
27796;SDS011;15177;50.844;4.412;2023-03-23T14:23:41;14.65;;;2.83;;
27796;SDS011;15177;50.844;4.412;2023-03-23T14:26:11;9.82;;;2.72;;
27796;SDS011;15177;50.844;4.412;2023-03-23T14:28:52;11.45;;;3.00;;
27796;SDS011;15177;50.844;4.412;2023-03-23T14:31:22;12.48;;;2.83;;
27796;SDS011;15177;50.844;4.412;2023-03-23T14:33:51;13.43;;;2.70;;
27796;SDS011;15177;50.844;4.412;2023-03-23T14:36:22;11.02;;;2.97;;
27796;SDS011;15177;50.844;4.412;2023-03-23T14:39:02;17.25;;;3.70;;
27796;SDS011;15177;50.844;4.412;2023-03-23T14:41:32;14.20;;;3.13;;
27796;SDS011;15177;50.844;4.412;2023-03-23T14:44:00;13.50;;;3.30;;
27796;SDS011;15177;50.844;4.412;2023-03-23T14:46:29;19.27;;;3.85;;
27796;SDS011;15177;50.844;4.412;2023-03-23T14:48:55;13.02;;;3.60;;
27796;SDS011;15177;50.844;4.412;2023-03-23T14:51:25;8.18;;;2.22;;
27796;SDS011;15177;50.844;4.412;2023-03-23T14:53:52;11.90;;;2.90;;
27796;SDS011;15177;50.844;4.412;2023-03-23T14:56:22;9.52;;;2.63;;
27796;SDS011;15177;50.844;4.412;2023-03-23T14:58:53;6.68;;;1.70;;
27796;SDS011;15177;50.844;4.412;2023-03-23T15:03:51;13.73;;;2.75;;
27796;SDS011;15177;50.844;4.412;2023-03-23T15:06:22;15.18;;;2.85;;
27796;SDS011;15177;50.844;4.412;2023-03-23T15:08:59;14.18;;;3.75;;
27796;SDS011;15177;50.844;4.412;2023-03-23T15:11:28;14.88;;;3.85;;
27796;SDS011;15177;50.844;4.412;2023-03-23T15:13:58;12.13;;;3.40;;
27796;SDS011;15177;50.844;4.412;2023-03-23T15:16:31;18.95;;;4.22;;
27796;SDS011;15177;50.844;4.412;2023-03-23T15:23:52;14.00;;;4.13;;
27796;SDS011;15177;50.844;4.412;2023-03-23T15:26:29;7.07;;;3.00;;
27796;SDS011;15177;50.844;4.412;2023-03-23T15:29:00;10.43;;;3.30;;
27796;SDS011;15177;50.844;4.412;2023-03-23T15:31:28;9.88;;;3.13;;
27796;SDS011;15177;50.844;4.412;2023-03-23T15:33:55;11.80;;;2.95;;
27796;SDS011;15177;50.844;4.412;2023-03-23T15:36:32;11.32;;;3.08;;
27796;SDS011;15177;50.844;4.412;2023-03-23T15:38:59;9.43;;;2.55;;
27796;SDS011;15177;50.844;4.412;2023-03-23T15:41:27;11.27;;;2.85;;
27796;SDS011;15177;50.844;4.412;2023-03-23T15:43:55;10.98;;;3.53;;
27796;SDS011;15177;50.844;4.412;2023-03-23T15:46:24;15.07;;;2.95;;
27796;SDS011;15177;50.844;4.412;2023-03-23T15:51:30;13.95;;;3.33;;
27796;SDS011;15177;50.844;4.412;2023-03-23T15:53:57;14.88;;;3.28;;
27796;SDS011;15177;50.844;4.412;2023-03-23T15:56:24;9.43;;;3.28;;
27796;SDS011;15177;50.844;4.412;2023-03-23T15:58:50;11.90;;;3.10;;
27796;SDS011;15177;50.844;4.412;2023-03-23T16:01:20;13.20;;;3.35;;
27796;SDS011;15177;50.844;4.412;2023-03-23T16:03:58;14.48;;;3.92;;
27796;SDS011;15177;50.844;4.412;2023-03-23T16:06:27;15.15;;;3.13;;
27796;SDS011;15177;50.844;4.412;2023-03-23T16:08:56;10.45;;;3.10;;
27796;SDS011;15177;50.844;4.412;2023-03-23T16:11:22;12.23;;;2.55;;
27796;SDS011;15177;50.844;4.412;2023-03-23T16:13:50;8.65;;;2.88;;
27796;SDS011;15177;50.844;4.412;2023-03-23T16:16:17;10.45;;;3.00;;
27796;SDS011;15177;50.844;4.412;2023-03-23T16:18:46;10.18;;;2.90;;
27796;SDS011;15177;50.844;4.412;2023-03-23T16:21:12;9.30;;;2.75;;
27796;SDS011;15177;50.844;4.412;2023-03-23T16:23:37;12.80;;;3.45;;
27796;SDS011;15177;50.844;4.412;2023-03-23T16:26:05;11.15;;;3.50;;
27796;SDS011;15177;50.844;4.412;2023-03-23T16:28:30;10.40;;;3.13;;
27796;SDS011;15177;50.844;4.412;2023-03-23T16:30:56;12.75;;;3.10;;
27796;SDS011;15177;50.844;4.412;2023-03-23T16:33:22;10.80;;;2.95;;
27796;SDS011;15177;50.844;4.412;2023-03-23T16:35:54;12.15;;;3.17;;
27796;SDS011;15177;50.844;4.412;2023-03-23T16:38:21;9.95;;;3.55;;
27796;SDS011;15177;50.844;4.412;2023-03-23T16:40:53;16.90;;;3.95;;
27796;SDS011;15177;50.844;4.412;2023-03-23T16:43:19;10.43;;;3.10;;
27796;SDS011;15177;50.844;4.412;2023-03-23T16:45:45;12.30;;;2.88;;
27796;SDS011;15177;50.844;4.412;2023-03-23T16:48:11;11.25;;;2.90;;
27796;SDS011;15177;50.844;4.412;2023-03-23T16:50:38;14.50;;;2.80;;
27796;SDS011;15177;50.844;4.412;2023-03-23T16:53:11;10.00;;;2.60;;
27796;SDS011;15177;50.844;4.412;2023-03-23T16:55:37;9.35;;;3.00;;
27796;SDS011;15177;50.844;4.412;2023-03-23T16:58:04;13.43;;;3.50;;
27796;SDS011;15177;50.844;4.412;2023-03-23T17:00:30;14.23;;;3.08;;
27796;SDS011;15177;50.844;4.412;2023-03-23T17:02:56;11.27;;;2.90;;
27796;SDS011;15177;50.844;4.412;2023-03-23T17:05:23;10.65;;;2.88;;
27796;SDS011;15177;50.844;4.412;2023-03-23T17:07:51;12.70;;;3.97;;
27796;SDS011;15177;50.844;4.412;2023-03-23T17:10:27;12.40;;;3.17;;
27796;SDS011;15177;50.844;4.412;2023-03-23T17:12:53;13.05;;;3.38;;
27796;SDS011;15177;50.844;4.412;2023-03-23T17:15:20;12.73;;;3.08;;
27796;SDS011;15177;50.844;4.412;2023-03-23T17:17:48;19.95;;;4.45;;
27796;SDS011;15177;50.844;4.412;2023-03-23T17:20:14;13.05;;;3.38;;
27796;SDS011;15177;50.844;4.412;2023-03-23T17:22:55;14.38;;;3.65;;